sensor_id;sensor_type;location;lat;lon;timestamp;temperature;humidity
8633;DHT22;4354;49.832;10.746;2023-09-18T00:00:53;15.40;99.90
8633;DHT22;4354;49.832;10.746;2023-09-18T00:03:22;15.40;99.90
8633;DHT22;4354;49.832;10.746;2023-09-18T00:05:52;15.30;99.90
8633;DHT22;4354;49.832;10.746;2023-09-18T00:08:19;15.30;99.90
8633;DHT22;4354;49.832;10.746;2023-09-18T00:10:51;15.30;99.90
8633;DHT22;4354;49.832;10.746;2023-09-18T00:13:18;15.20;99.90
8633;DHT22;4354;49.832;10.746;2023-09-18T00:15:45;15.20;99.90
8633;DHT22;4354;49.832;10.746;2023-09-18T00:18:14;15.20;99.90
8633;DHT22;4354;49.832;10.746;2023-09-18T00:20:42;15.20;99.90
8633;DHT22;4354;49.832;10.746;2023-09-18T00:23:09;15.20;99.90
8633;DHT22;4354;49.832;10.746;2023-09-18T00:25:36;15.10;99.90
8633;DHT22;4354;49.832;10.746;2023-09-18T00:28:04;15.00;99.90
8633;DHT22;4354;49.832;10.746;2023-09-18T00:30:31;15.10;99.90
8633;DHT22;4354;49.832;10.746;2023-09-18T00:32:57;15.00;99.90
8633;DHT22;4354;49.832;10.746;2023-09-18T00:35:24;15.00;99.90
8633;DHT22;4354;49.832;10.746;2023-09-18T00:37:51;15.00;99.90
8633;DHT22;4354;49.832;10.746;2023-09-18T00:40:19;14.90;99.90
8633;DHT22;4354;49.832;10.746;2023-09-18T00:42:46;14.90;99.90
8633;DHT22;4354;49.832;10.746;2023-09-18T00:45:13;14.90;99.90
8633;DHT22;4354;49.832;10.746;2023-09-18T00:47:40;15.00;99.90
8633;DHT22;4354;49.832;10.746;2023-09-18T00:50:09;14.90;99.90
8633;DHT22;4354;49.832;10.746;2023-09-18T00:52:38;14.90;99.90
8633;DHT22;4354;49.832;10.746;2023-09-18T00:55:06;14.90;99.90
8633;DHT22;4354;49.832;10.746;2023-09-18T00:57:33;14.90;99.90
8633;DHT22;4354;49.832;10.746;2023-09-18T01:00:02;14.90;99.90
8633;DHT22;4354;49.832;10.746;2023-09-18T01:02:30;14.80;99.90
8633;DHT22;4354;49.832;10.746;2023-09-18T01:12:40;14.70;99.90
8633;DHT22;4354;49.832;10.746;2023-09-18T01:15:22;14.70;99.90
8633;DHT22;4354;49.832;10.746;2023-09-18T01:17:51;14.80;99.90
8633;DHT22;4354;49.832;10.746;2023-09-18T01:20:18;14.80;99.90
8633;DHT22;4354;49.832;10.746;2023-09-18T01:22:45;14.70;99.90
8633;DHT22;4354;49.832;10.746;2023-09-18T01:25:11;14.70;99.90
8633;DHT22;4354;49.832;10.746;2023-09-18T01:27:38;14.60;99.90
8633;DHT22;4354;49.832;10.746;2023-09-18T01:30:05;14.50;99.90
8633;DHT22;4354;49.832;10.746;2023-09-18T01:32:33;14.40;99.90
8633;DHT22;4354;49.832;10.746;2023-09-18T01:35:02;14.40;99.90
8633;DHT22;4354;49.832;10.746;2023-09-18T01:37:31;14.40;99.90
8633;DHT22;4354;49.832;10.746;2023-09-18T01:39:58;14.30;99.90
8633;DHT22;4354;49.832;10.746;2023-09-18T01:42:27;14.30;99.90
8633;DHT22;4354;49.832;10.746;2023-09-18T01:44:54;14.30;99.90
8633;DHT22;4354;49.832;10.746;2023-09-18T01:47:22;14.30;99.90
8633;DHT22;4354;49.832;10.746;2023-09-18T01:49:53;14.20;99.90
8633;DHT22;4354;49.832;10.746;2023-09-18T01:52:20;14.20;99.90
8633;DHT22;4354;49.832;10.746;2023-09-18T01:54:47;14.20;99.90
8633;DHT22;4354;49.832;10.746;2023-09-18T01:57:15;14.10;99.90
8633;DHT22;4354;49.832;10.746;2023-09-18T01:59:41;14.10;99.90
8633;DHT22;4354;49.832;10.746;2023-09-18T02:02:09;14.10;99.90
8633;DHT22;4354;49.832;10.746;2023-09-18T02:04:42;14.10;99.90
8633;DHT22;4354;49.832;10.746;2023-09-18T02:07:28;14.00;99.90
8633;DHT22;4354;49.832;10.746;2023-09-18T02:09:55;14.10;99.90
8633;DHT22;4354;49.832;10.746;2023-09-18T02:12:22;14.10;99.90
8633;DHT22;4354;49.832;10.746;2023-09-18T02:14:49;14.10;99.90
8633;DHT22;4354;49.832;10.746;2023-09-18T02:17:15;14.10;99.90
8633;DHT22;4354;49.832;10.746;2023-09-18T02:19:42;14.10;99.90
8633;DHT22;4354;49.832;10.746;2023-09-18T02:22:09;14.10;99.90
8633;DHT22;4354;49.832;10.746;2023-09-18T02:24:36;14.10;99.90
8633;DHT22;4354;49.832;10.746;2023-09-18T02:27:06;14.10;99.90
8633;DHT22;4354;49.832;10.746;2023-09-18T02:29:33;14.10;99.90
8633;DHT22;4354;49.832;10.746;2023-09-18T02:31:59;14.10;99.90
8633;DHT22;4354;49.832;10.746;2023-09-18T02:34:27;14.10;99.90
8633;DHT22;4354;49.832;10.746;2023-09-18T02:36:54;14.00;99.90
8633;DHT22;4354;49.832;10.746;2023-09-18T02:39:21;14.00;99.90
8633;DHT22;4354;49.832;10.746;2023-09-18T02:41:48;14.00;99.90
8633;DHT22;4354;49.832;10.746;2023-09-18T02:44:14;14.00;99.90
8633;DHT22;4354;49.832;10.746;2023-09-18T02:46:42;14.00;99.90
8633;DHT22;4354;49.832;10.746;2023-09-18T02:49:10;13.90;99.90
8633;DHT22;4354;49.832;10.746;2023-09-18T02:51:36;13.90;99.90
8633;DHT22;4354;49.832;10.746;2023-09-18T02:54:03;13.90;99.90
8633;DHT22;4354;49.832;10.746;2023-09-18T02:56:30;13.80;99.90
8633;DHT22;4354;49.832;10.746;2023-09-18T02:58:57;13.80;99.90
8633;DHT22;4354;49.832;10.746;2023-09-18T03:01:24;13.80;99.90
8633;DHT22;4354;49.832;10.746;2023-09-18T03:03:52;13.80;99.90
8633;DHT22;4354;49.832;10.746;2023-09-18T03:06:19;13.80;99.90
8633;DHT22;4354;49.832;10.746;2023-09-18T03:08:45;13.80;99.90
8633;DHT22;4354;49.832;10.746;2023-09-18T03:11:13;13.80;99.90
8633;DHT22;4354;49.832;10.746;2023-09-18T03:13:44;13.80;99.90
8633;DHT22;4354;49.832;10.746;2023-09-18T03:16:14;13.80;99.90
8633;DHT22;4354;49.832;10.746;2023-09-18T03:18:41;13.80;99.90
8633;DHT22;4354;49.832;10.746;2023-09-18T03:21:08;13.80;99.90
8633;DHT22;4354;49.832;10.746;2023-09-18T03:23:35;13.70;99.90
8633;DHT22;4354;49.832;10.746;2023-09-18T03:26:02;13.70;99.90
8633;DHT22;4354;49.832;10.746;2023-09-18T03:28:29;13.70;99.90
8633;DHT22;4354;49.832;10.746;2023-09-18T03:30:57;13.70;99.90
8633;DHT22;4354;49.832;10.746;2023-09-18T03:33:24;13.70;99.90
8633;DHT22;4354;49.832;10.746;2023-09-18T03:35:52;13.70;99.90
8633;DHT22;4354;49.832;10.746;2023-09-18T03:38:20;13.70;99.90
8633;DHT22;4354;49.832;10.746;2023-09-18T03:40:48;13.70;99.90
8633;DHT22;4354;49.832;10.746;2023-09-18T03:43:14;13.70;99.90
8633;DHT22;4354;49.832;10.746;2023-09-18T03:45:41;13.70;99.90
8633;DHT22;4354;49.832;10.746;2023-09-18T03:48:09;13.70;99.90
8633;DHT22;4354;49.832;10.746;2023-09-18T03:50:36;13.70;99.90
8633;DHT22;4354;49.832;10.746;2023-09-18T03:53:03;13.60;99.90
8633;DHT22;4354;49.832;10.746;2023-09-18T03:55:30;13.70;99.90
8633;DHT22;4354;49.832;10.746;2023-09-18T03:57:57;13.70;99.90
8633;DHT22;4354;49.832;10.746;2023-09-18T04:00:24;13.70;99.90
8633;DHT22;4354;49.832;10.746;2023-09-18T04:02:51;13.70;99.90
8633;DHT22;4354;49.832;10.746;2023-09-18T04:05:18;13.80;99.90
8633;DHT22;4354;49.832;10.746;2023-09-18T04:07:45;13.80;99.90
8633;DHT22;4354;49.832;10.746;2023-09-18T04:10:14;13.90;99.90
8633;DHT22;4354;49.832;10.746;2023-09-18T04:12:51;14.00;99.90
8633;DHT22;4354;49.832;10.746;2023-09-18T04:15:18;14.10;99.90
8633;DHT22;4354;49.832;10.746;2023-09-18T04:17:45;14.10;99.90
8633;DHT22;4354;49.832;10.746;2023-09-18T04:20:13;14.30;99.90
8633;DHT22;4354;49.832;10.746;2023-09-18T04:22:45;14.30;99.90
8633;DHT22;4354;49.832;10.746;2023-09-18T04:25:16;14.40;99.90
8633;DHT22;4354;49.832;10.746;2023-09-18T04:27:43;14.40;99.90
8633;DHT22;4354;49.832;10.746;2023-09-18T04:30:10;14.50;99.90
8633;DHT22;4354;49.832;10.746;2023-09-18T04:32:37;14.50;99.90
8633;DHT22;4354;49.832;10.746;2023-09-18T04:35:05;14.50;99.90
8633;DHT22;4354;49.832;10.746;2023-09-18T04:37:36;14.60;99.90
8633;DHT22;4354;49.832;10.746;2023-09-18T04:40:05;14.60;99.90
8633;DHT22;4354;49.832;10.746;2023-09-18T04:42:38;14.60;99.90
8633;DHT22;4354;49.832;10.746;2023-09-18T04:45:05;14.70;99.90
8633;DHT22;4354;49.832;10.746;2023-09-18T04:47:32;14.70;99.90
8633;DHT22;4354;49.832;10.746;2023-09-18T04:49:59;14.70;99.90
8633;DHT22;4354;49.832;10.746;2023-09-18T04:52:26;14.70;99.90
8633;DHT22;4354;49.832;10.746;2023-09-18T04:54:52;14.70;99.90
8633;DHT22;4354;49.832;10.746;2023-09-18T04:57:20;14.60;99.90
8633;DHT22;4354;49.832;10.746;2023-09-18T04:59:49;14.60;99.90
8633;DHT22;4354;49.832;10.746;2023-09-18T05:02:31;14.60;99.90
8633;DHT22;4354;49.832;10.746;2023-09-18T05:04:58;14.60;99.90
8633;DHT22;4354;49.832;10.746;2023-09-18T05:07:25;14.70;99.90
8633;DHT22;4354;49.832;10.746;2023-09-18T05:09:52;14.70;99.90
8633;DHT22;4354;49.832;10.746;2023-09-18T05:12:19;14.70;99.90
8633;DHT22;4354;49.832;10.746;2023-09-18T05:14:46;14.70;99.90
8633;DHT22;4354;49.832;10.746;2023-09-18T05:17:17;14.80;99.90
8633;DHT22;4354;49.832;10.746;2023-09-18T05:19:44;14.90;99.90
8633;DHT22;4354;49.832;10.746;2023-09-18T05:22:11;15.00;99.90
8633;DHT22;4354;49.832;10.746;2023-09-18T05:24:38;15.10;99.90
8633;DHT22;4354;49.832;10.746;2023-09-18T05:27:05;15.20;99.90
8633;DHT22;4354;49.832;10.746;2023-09-18T05:29:35;15.20;99.90
8633;DHT22;4354;49.832;10.746;2023-09-18T05:32:04;15.30;99.90
8633;DHT22;4354;49.832;10.746;2023-09-18T05:34:31;15.40;99.90
8633;DHT22;4354;49.832;10.746;2023-09-18T05:36:58;15.50;99.90
8633;DHT22;4354;49.832;10.746;2023-09-18T05:39:25;15.60;99.90
8633;DHT22;4354;49.832;10.746;2023-09-18T05:41:52;15.60;99.90
8633;DHT22;4354;49.832;10.746;2023-09-18T05:44:19;15.70;99.90
8633;DHT22;4354;49.832;10.746;2023-09-18T05:46:46;15.80;99.90
8633;DHT22;4354;49.832;10.746;2023-09-18T05:49:13;15.90;99.90
8633;DHT22;4354;49.832;10.746;2023-09-18T05:51:39;16.00;99.90
8633;DHT22;4354;49.832;10.746;2023-09-18T05:54:06;16.10;99.90
8633;DHT22;4354;49.832;10.746;2023-09-18T05:56:33;16.10;99.90
8633;DHT22;4354;49.832;10.746;2023-09-18T05:59:00;16.20;99.90
8633;DHT22;4354;49.832;10.746;2023-09-18T06:01:27;16.30;99.90
8633;DHT22;4354;49.832;10.746;2023-09-18T06:03:55;16.40;99.90
8633;DHT22;4354;49.832;10.746;2023-09-18T06:06:22;16.50;99.00
8633;DHT22;4354;49.832;10.746;2023-09-18T06:08:49;16.60;97.20
8633;DHT22;4354;49.832;10.746;2023-09-18T06:11:16;16.60;92.40
8633;DHT22;4354;49.832;10.746;2023-09-18T06:13:44;16.70;92.50
8633;DHT22;4354;49.832;10.746;2023-09-18T06:16:11;16.70;83.10
8633;DHT22;4354;49.832;10.746;2023-09-18T06:18:38;16.70;79.80
8633;DHT22;4354;49.832;10.746;2023-09-18T06:21:05;16.70;84.60
8633;DHT22;4354;49.832;10.746;2023-09-18T06:23:32;16.80;90.80
8633;DHT22;4354;49.832;10.746;2023-09-18T06:25:59;16.80;90.50
8633;DHT22;4354;49.832;10.746;2023-09-18T06:28:27;16.90;93.90
8633;DHT22;4354;49.832;10.746;2023-09-18T06:30:53;16.90;95.20
8633;DHT22;4354;49.832;10.746;2023-09-18T06:33:21;16.90;91.50
8633;DHT22;4354;49.832;10.746;2023-09-18T06:35:48;17.00;95.30
8633;DHT22;4354;49.832;10.746;2023-09-18T06:38:15;17.20;93.00
8633;DHT22;4354;49.832;10.746;2023-09-18T06:40:42;17.40;84.80
8633;DHT22;4354;49.832;10.746;2023-09-18T06:43:09;17.50;59.00
8633;DHT22;4354;49.832;10.746;2023-09-18T06:45:35;17.90;43.20
8633;DHT22;4354;49.832;10.746;2023-09-18T06:48:05;17.90;29.80
8633;DHT22;4354;49.832;10.746;2023-09-18T06:50:32;18.00;5.40
8633;DHT22;4354;49.832;10.746;2023-09-18T06:53:00;18.20;3.60
8633;DHT22;4354;49.832;10.746;2023-09-18T06:55:26;18.20;8.50
8633;DHT22;4354;49.832;10.746;2023-09-18T06:57:54;18.20;15.40
8633;DHT22;4354;49.832;10.746;2023-09-18T07:00:20;18.30;19.70
8633;DHT22;4354;49.832;10.746;2023-09-18T07:02:48;18.30;7.60
8633;DHT22;4354;49.832;10.746;2023-09-18T07:05:16;18.40;1.00
8633;DHT22;4354;49.832;10.746;2023-09-18T07:07:43;18.50;1.00
8633;DHT22;4354;49.832;10.746;2023-09-18T07:10:10;18.50;1.00
8633;DHT22;4354;49.832;10.746;2023-09-18T07:12:37;18.50;1.00
8633;DHT22;4354;49.832;10.746;2023-09-18T07:15:04;18.50;1.00
8633;DHT22;4354;49.832;10.746;2023-09-18T07:17:33;18.50;1.00
8633;DHT22;4354;49.832;10.746;2023-09-18T07:20:01;18.50;1.00
8633;DHT22;4354;49.832;10.746;2023-09-18T07:22:27;18.60;1.00
8633;DHT22;4354;49.832;10.746;2023-09-18T07:24:56;18.70;1.00
8633;DHT22;4354;49.832;10.746;2023-09-18T07:27:23;18.90;1.00
8633;DHT22;4354;49.832;10.746;2023-09-18T07:29:50;19.20;1.00
8633;DHT22;4354;49.832;10.746;2023-09-18T07:32:17;19.40;1.00
8633;DHT22;4354;49.832;10.746;2023-09-18T07:35:03;19.70;1.00
8633;DHT22;4354;49.832;10.746;2023-09-18T07:37:33;19.80;99.90
8633;DHT22;4354;49.832;10.746;2023-09-18T07:40:03;19.80;1.00
8633;DHT22;4354;49.832;10.746;2023-09-18T07:42:30;19.90;99.90
8633;DHT22;4354;49.832;10.746;2023-09-18T07:44:57;20.10;1.00
8633;DHT22;4354;49.832;10.746;2023-09-18T07:47:25;20.20;1.00
8633;DHT22;4354;49.832;10.746;2023-09-18T07:49:52;20.30;1.00
8633;DHT22;4354;49.832;10.746;2023-09-18T07:52:21;20.20;1.00
8633;DHT22;4354;49.832;10.746;2023-09-18T07:54:47;20.30;1.00
8633;DHT22;4354;49.832;10.746;2023-09-18T07:57:15;20.30;99.90
8633;DHT22;4354;49.832;10.746;2023-09-18T07:59:42;20.30;1.00
8633;DHT22;4354;49.832;10.746;2023-09-18T08:02:09;20.30;99.90
8633;DHT22;4354;49.832;10.746;2023-09-18T08:04:36;20.30;1.00
8633;DHT22;4354;49.832;10.746;2023-09-18T08:07:03;20.40;1.00
8633;DHT22;4354;49.832;10.746;2023-09-18T08:09:33;20.60;99.90
8633;DHT22;4354;49.832;10.746;2023-09-18T08:12:03;20.80;1.00
8633;DHT22;4354;49.832;10.746;2023-09-18T08:14:30;21.10;1.00
8633;DHT22;4354;49.832;10.746;2023-09-18T08:16:58;21.50;1.00
8633;DHT22;4354;49.832;10.746;2023-09-18T08:19:26;21.90;99.90
8633;DHT22;4354;49.832;10.746;2023-09-18T08:21:53;22.70;1.00
8633;DHT22;4354;49.832;10.746;2023-09-18T08:24:21;23.60;1.00
8633;DHT22;4354;49.832;10.746;2023-09-18T08:26:48;24.70;99.90
8633;DHT22;4354;49.832;10.746;2023-09-18T08:29:15;26.90;1.00
8633;DHT22;4354;49.832;10.746;2023-09-18T08:31:42;28.60;99.90
8633;DHT22;4354;49.832;10.746;2023-09-18T08:34:09;29.50;99.90
8633;DHT22;4354;49.832;10.746;2023-09-18T08:36:36;31.10;99.90
8633;DHT22;4354;49.832;10.746;2023-09-18T08:39:03;31.90;99.90
8633;DHT22;4354;49.832;10.746;2023-09-18T08:41:33;31.90;99.90
8633;DHT22;4354;49.832;10.746;2023-09-18T08:44:07;31.10;99.90
8633;DHT22;4354;49.832;10.746;2023-09-18T08:46:39;30.10;99.90
8633;DHT22;4354;49.832;10.746;2023-09-18T08:49:07;28.80;99.90
8633;DHT22;4354;49.832;10.746;2023-09-18T08:51:35;28.00;99.90
8633;DHT22;4354;49.832;10.746;2023-09-18T08:54:04;27.30;99.90
8633;DHT22;4354;49.832;10.746;2023-09-18T08:56:32;26.80;99.90
8633;DHT22;4354;49.832;10.746;2023-09-18T08:59:00;26.30;99.90
8633;DHT22;4354;49.832;10.746;2023-09-18T09:01:27;26.20;99.90
8633;DHT22;4354;49.832;10.746;2023-09-18T09:03:54;26.60;99.90
8633;DHT22;4354;49.832;10.746;2023-09-18T09:06:21;26.60;99.90
8633;DHT22;4354;49.832;10.746;2023-09-18T09:08:49;28.10;99.90
8633;DHT22;4354;49.832;10.746;2023-09-18T09:11:17;30.60;99.90
8633;DHT22;4354;49.832;10.746;2023-09-18T09:13:46;32.40;99.90
8633;DHT22;4354;49.832;10.746;2023-09-18T09:16:13;33.80;96.70
8633;DHT22;4354;49.832;10.746;2023-09-18T09:18:50;34.90;78.60
8633;DHT22;4354;49.832;10.746;2023-09-18T09:21:18;34.70;60.90
8633;DHT22;4354;49.832;10.746;2023-09-18T09:23:51;34.70;53.00
8633;DHT22;4354;49.832;10.746;2023-09-18T09:26:21;34.50;49.80
8633;DHT22;4354;49.832;10.746;2023-09-18T09:28:49;35.10;43.40
8633;DHT22;4354;49.832;10.746;2023-09-18T09:31:34;35.50;29.50
8633;DHT22;4354;49.832;10.746;2023-09-18T09:34:01;36.00;22.80
8633;DHT22;4354;49.832;10.746;2023-09-18T09:36:32;35.50;20.50
8633;DHT22;4354;49.832;10.746;2023-09-18T09:38:59;34.50;16.30
8633;DHT22;4354;49.832;10.746;2023-09-18T09:41:27;34.10;15.90
8633;DHT22;4354;49.832;10.746;2023-09-18T09:43:55;33.90;18.70
8633;DHT22;4354;49.832;10.746;2023-09-18T09:46:23;34.70;14.90
8633;DHT22;4354;49.832;10.746;2023-09-18T09:49:02;35.10;13.50
8633;DHT22;4354;49.832;10.746;2023-09-18T09:51:29;34.90;10.50
8633;DHT22;4354;49.832;10.746;2023-09-18T09:53:56;34.20;4.30
8633;DHT22;4354;49.832;10.746;2023-09-18T09:56:48;33.30;8.20
8633;DHT22;4354;49.832;10.746;2023-09-18T09:59:18;32.50;12.40
8633;DHT22;4354;49.832;10.746;2023-09-18T10:01:47;32.00;9.90
8633;DHT22;4354;49.832;10.746;2023-09-18T10:04:18;31.80;13.40
8633;DHT22;4354;49.832;10.746;2023-09-18T10:06:51;32.70;11.00
8633;DHT22;4354;49.832;10.746;2023-09-18T10:09:19;33.00;8.30
8633;DHT22;4354;49.832;10.746;2023-09-18T10:11:52;32.00;7.80
8633;DHT22;4354;49.832;10.746;2023-09-18T10:14:21;31.60;8.70
8633;DHT22;4354;49.832;10.746;2023-09-18T10:16:54;31.40;9.50
8633;DHT22;4354;49.832;10.746;2023-09-18T10:24:39;30.70;9.30
8633;DHT22;4354;49.832;10.746;2023-09-18T10:27:12;30.80;10.10
8633;DHT22;4354;49.832;10.746;2023-09-18T10:29:41;30.90;5.20
8633;DHT22;4354;49.832;10.746;2023-09-18T10:32:08;29.80;8.70
8633;DHT22;4354;49.832;10.746;2023-09-18T10:34:36;29.00;6.10
8633;DHT22;4354;49.832;10.746;2023-09-18T10:37:04;28.40;10.80
8633;DHT22;4354;49.832;10.746;2023-09-18T10:39:38;27.60;13.90
8633;DHT22;4354;49.832;10.746;2023-09-18T10:42:09;26.70;19.00
8633;DHT22;4354;49.832;10.746;2023-09-18T10:44:37;26.30;20.40
8633;DHT22;4354;49.832;10.746;2023-09-18T10:47:08;26.00;19.30
8633;DHT22;4354;49.832;10.746;2023-09-18T10:49:37;25.50;25.00
8633;DHT22;4354;49.832;10.746;2023-09-18T10:52:04;25.10;22.00
8633;DHT22;4354;49.832;10.746;2023-09-18T10:54:32;25.00;26.80
8633;DHT22;4354;49.832;10.746;2023-09-18T10:56:59;24.90;52.10
8633;DHT22;4354;49.832;10.746;2023-09-18T10:59:28;25.30;28.80
8633;DHT22;4354;49.832;10.746;2023-09-18T11:01:56;25.80;27.40
8633;DHT22;4354;49.832;10.746;2023-09-18T11:04:23;26.30;22.50
8633;DHT22;4354;49.832;10.746;2023-09-18T11:09:25;26.30;27.70
8633;DHT22;4354;49.832;10.746;2023-09-18T11:12:14;26.30;28.60
8633;DHT22;4354;49.832;10.746;2023-09-18T11:14:58;26.10;26.50
8633;DHT22;4354;49.832;10.746;2023-09-18T11:20:05;25.10;35.10
8633;DHT22;4354;49.832;10.746;2023-09-18T11:22:36;24.80;35.70
8633;DHT22;4354;49.832;10.746;2023-09-18T11:28:16;23.90;52.90
8633;DHT22;4354;49.832;10.746;2023-09-18T11:30:56;23.50;61.70
8633;DHT22;4354;49.832;10.746;2023-09-18T11:33:41;23.10;95.10
8633;DHT22;4354;49.832;10.746;2023-09-18T11:36:29;23.00;99.90
8633;DHT22;4354;49.832;10.746;2023-09-18T11:39:00;22.70;99.90
8633;DHT22;4354;49.832;10.746;2023-09-18T11:41:32;22.60;99.90
8633;DHT22;4354;49.832;10.746;2023-09-18T11:46:48;22.20;1.00
8633;DHT22;4354;49.832;10.746;2023-09-18T11:49:22;21.90;99.90
8633;DHT22;4354;49.832;10.746;2023-09-18T11:51:50;21.70;1.00
8633;DHT22;4354;49.832;10.746;2023-09-18T11:54:18;21.50;99.90
8633;DHT22;4354;49.832;10.746;2023-09-18T11:56:45;21.20;1.00
8633;DHT22;4354;49.832;10.746;2023-09-18T11:59:12;21.00;1.00
8633;DHT22;4354;49.832;10.746;2023-09-18T12:01:39;20.80;1.00
8633;DHT22;4354;49.832;10.746;2023-09-18T12:04:07;20.60;1.00
8633;DHT22;4354;49.832;10.746;2023-09-18T12:06:41;20.50;1.00
8633;DHT22;4354;49.832;10.746;2023-09-18T12:09:08;20.40;1.00
8633;DHT22;4354;49.832;10.746;2023-09-18T12:11:36;20.40;1.00
8633;DHT22;4354;49.832;10.746;2023-09-18T12:14:05;20.20;1.00
8633;DHT22;4354;49.832;10.746;2023-09-18T12:16:37;20.30;1.00
8633;DHT22;4354;49.832;10.746;2023-09-18T12:19:07;20.30;1.00
8633;DHT22;4354;49.832;10.746;2023-09-18T12:21:41;20.20;1.00
8633;DHT22;4354;49.832;10.746;2023-09-18T12:24:14;20.30;1.00
8633;DHT22;4354;49.832;10.746;2023-09-18T12:26:40;20.20;1.00
8633;DHT22;4354;49.832;10.746;2023-09-18T12:29:08;20.30;1.00
8633;DHT22;4354;49.832;10.746;2023-09-18T12:31:37;20.20;1.00
8633;DHT22;4354;49.832;10.746;2023-09-18T12:34:04;20.00;1.00
8633;DHT22;4354;49.832;10.746;2023-09-18T12:36:34;20.10;1.00
8633;DHT22;4354;49.832;10.746;2023-09-18T12:39:01;20.10;1.00
8633;DHT22;4354;49.832;10.746;2023-09-18T12:41:28;20.10;1.00
8633;DHT22;4354;49.832;10.746;2023-09-18T12:43:58;20.10;1.00
8633;DHT22;4354;49.832;10.746;2023-09-18T12:46:24;20.20;1.00
8633;DHT22;4354;49.832;10.746;2023-09-18T12:48:51;20.20;1.00
8633;DHT22;4354;49.832;10.746;2023-09-18T12:51:18;20.00;1.00
8633;DHT22;4354;49.832;10.746;2023-09-18T12:54:01;20.00;1.00
8633;DHT22;4354;49.832;10.746;2023-09-18T12:56:40;19.80;1.00
8633;DHT22;4354;49.832;10.746;2023-09-18T12:59:07;19.80;1.00
8633;DHT22;4354;49.832;10.746;2023-09-18T13:01:41;19.70;1.00
8633;DHT22;4354;49.832;10.746;2023-09-18T13:04:12;19.70;1.00
8633;DHT22;4354;49.832;10.746;2023-09-18T13:06:39;19.70;1.00
8633;DHT22;4354;49.832;10.746;2023-09-18T13:09:16;19.60;1.00
8633;DHT22;4354;49.832;10.746;2023-09-18T13:11:56;19.60;1.00
8633;DHT22;4354;49.832;10.746;2023-09-18T13:14:26;19.60;1.00
8633;DHT22;4354;49.832;10.746;2023-09-18T13:16:59;19.70;1.00
8633;DHT22;4354;49.832;10.746;2023-09-18T13:19:26;19.60;1.00
8633;DHT22;4354;49.832;10.746;2023-09-18T13:21:54;19.50;1.00
8633;DHT22;4354;49.832;10.746;2023-09-18T13:24:28;19.50;30.10
8633;DHT22;4354;49.832;10.746;2023-09-18T13:26:57;19.50;15.60
8633;DHT22;4354;49.832;10.746;2023-09-18T13:29:25;19.50;13.70
8633;DHT22;4354;49.832;10.746;2023-09-18T13:31:52;19.50;1.00
8633;DHT22;4354;49.832;10.746;2023-09-18T13:34:19;19.60;1.00
8633;DHT22;4354;49.832;10.746;2023-09-18T13:36:46;19.40;1.00
8633;DHT22;4354;49.832;10.746;2023-09-18T13:39:13;19.40;1.00
8633;DHT22;4354;49.832;10.746;2023-09-18T13:41:43;19.40;5.40
8633;DHT22;4354;49.832;10.746;2023-09-18T13:44:10;19.20;16.30
8633;DHT22;4354;49.832;10.746;2023-09-18T13:46:37;19.20;1.00
8633;DHT22;4354;49.832;10.746;2023-09-18T13:49:04;19.10;3.10
8633;DHT22;4354;49.832;10.746;2023-09-18T13:51:32;19.10;17.00
8633;DHT22;4354;49.832;10.746;2023-09-18T13:53:59;19.20;45.80
8633;DHT22;4354;49.832;10.746;2023-09-18T13:56:27;19.10;65.00
8633;DHT22;4354;49.832;10.746;2023-09-18T13:58:58;19.10;14.40
8633;DHT22;4354;49.832;10.746;2023-09-18T14:01:24;19.10;17.90
8633;DHT22;4354;49.832;10.746;2023-09-18T14:03:53;19.10;1.00
8633;DHT22;4354;49.832;10.746;2023-09-18T14:06:21;18.90;1.00
8633;DHT22;4354;49.832;10.746;2023-09-18T14:08:48;18.80;1.00
8633;DHT22;4354;49.832;10.746;2023-09-18T14:11:15;19.00;1.00
8633;DHT22;4354;49.832;10.746;2023-09-18T14:13:42;18.90;1.00
8633;DHT22;4354;49.832;10.746;2023-09-18T14:16:09;18.90;1.00
8633;DHT22;4354;49.832;10.746;2023-09-18T14:18:37;18.80;24.60
8633;DHT22;4354;49.832;10.746;2023-09-18T14:21:05;18.80;1.00
8633;DHT22;4354;49.832;10.746;2023-09-18T14:23:33;19.00;35.50
8633;DHT22;4354;49.832;10.746;2023-09-18T14:26:01;19.10;1.00
8633;DHT22;4354;49.832;10.746;2023-09-18T14:28:28;19.20;9.40
8633;DHT22;4354;49.832;10.746;2023-09-18T14:30:54;19.10;1.00
8633;DHT22;4354;49.832;10.746;2023-09-18T14:33:21;19.00;1.00
8633;DHT22;4354;49.832;10.746;2023-09-18T14:35:49;19.00;1.00
8633;DHT22;4354;49.832;10.746;2023-09-18T14:38:16;19.00;1.00
8633;DHT22;4354;49.832;10.746;2023-09-18T14:40:43;19.00;1.00
8633;DHT22;4354;49.832;10.746;2023-09-18T14:43:10;18.90;1.00
8633;DHT22;4354;49.832;10.746;2023-09-18T14:45:38;19.00;1.00
8633;DHT22;4354;49.832;10.746;2023-09-18T14:48:06;18.90;1.00
8633;DHT22;4354;49.832;10.746;2023-09-18T14:50:33;18.80;1.00
8633;DHT22;4354;49.832;10.746;2023-09-18T14:53:00;18.80;1.00
8633;DHT22;4354;49.832;10.746;2023-09-18T14:55:27;18.70;1.00
8633;DHT22;4354;49.832;10.746;2023-09-18T14:57:54;18.70;1.00
8633;DHT22;4354;49.832;10.746;2023-09-18T15:00:21;18.70;1.00
8633;DHT22;4354;49.832;10.746;2023-09-18T15:02:48;18.80;1.00
8633;DHT22;4354;49.832;10.746;2023-09-18T15:05:15;18.90;1.00
8633;DHT22;4354;49.832;10.746;2023-09-18T15:07:44;19.10;1.00
8633;DHT22;4354;49.832;10.746;2023-09-18T15:10:11;19.40;1.00
8633;DHT22;4354;49.832;10.746;2023-09-18T15:12:37;19.50;1.00
8633;DHT22;4354;49.832;10.746;2023-09-18T15:15:05;19.60;1.00
8633;DHT22;4354;49.832;10.746;2023-09-18T15:17:31;19.80;1.00
8633;DHT22;4354;49.832;10.746;2023-09-18T15:19:59;19.80;1.00
8633;DHT22;4354;49.832;10.746;2023-09-18T15:22:26;19.90;1.00
8633;DHT22;4354;49.832;10.746;2023-09-18T15:24:53;19.90;1.00
8633;DHT22;4354;49.832;10.746;2023-09-18T15:27:24;19.60;1.00
8633;DHT22;4354;49.832;10.746;2023-09-18T15:29:51;19.50;1.00
8633;DHT22;4354;49.832;10.746;2023-09-18T15:32:18;19.50;1.00
8633;DHT22;4354;49.832;10.746;2023-09-18T15:34:46;19.40;1.00
8633;DHT22;4354;49.832;10.746;2023-09-18T15:37:14;19.50;1.00
8633;DHT22;4354;49.832;10.746;2023-09-18T15:39:43;19.40;1.00
8633;DHT22;4354;49.832;10.746;2023-09-18T15:42:10;19.40;1.00
8633;DHT22;4354;49.832;10.746;2023-09-18T15:44:37;19.40;1.00
8633;DHT22;4354;49.832;10.746;2023-09-18T15:47:04;19.40;1.00
8633;DHT22;4354;49.832;10.746;2023-09-18T15:49:32;19.40;1.00
8633;DHT22;4354;49.832;10.746;2023-09-18T15:51:58;19.30;1.00
8633;DHT22;4354;49.832;10.746;2023-09-18T15:54:25;19.30;1.00
8633;DHT22;4354;49.832;10.746;2023-09-18T15:56:52;19.30;1.00
8633;DHT22;4354;49.832;10.746;2023-09-18T15:59:19;19.20;1.00
8633;DHT22;4354;49.832;10.746;2023-09-18T16:01:46;19.30;1.00
8633;DHT22;4354;49.832;10.746;2023-09-18T16:04:13;19.10;1.00
8633;DHT22;4354;49.832;10.746;2023-09-18T16:06:40;19.00;1.00
8633;DHT22;4354;49.832;10.746;2023-09-18T16:09:07;19.10;1.00
8633;DHT22;4354;49.832;10.746;2023-09-18T16:11:36;19.00;1.00
8633;DHT22;4354;49.832;10.746;2023-09-18T16:14:03;18.90;1.00
8633;DHT22;4354;49.832;10.746;2023-09-18T16:16:30;18.90;1.00
8633;DHT22;4354;49.832;10.746;2023-09-18T16:18:57;18.80;1.00
8633;DHT22;4354;49.832;10.746;2023-09-18T16:21:24;18.80;1.00
8633;DHT22;4354;49.832;10.746;2023-09-18T16:23:51;18.70;1.00